sensor_id;sensor_type;location;lat;lon;timestamp;temperature;humidity
6146;DHT22;3104;50.348;7.620;2022-07-29T00:00:38;21.10;96.20
6146;DHT22;3104;50.348;7.620;2022-07-29T00:03:03;21.20;95.80
6146;DHT22;3104;50.348;7.620;2022-07-29T00:05:29;21.10;95.80
6146;DHT22;3104;50.348;7.620;2022-07-29T00:07:54;21.10;95.90
6146;DHT22;3104;50.348;7.620;2022-07-29T00:10:20;21.10;95.80
6146;DHT22;3104;50.348;7.620;2022-07-29T00:12:46;21.10;95.70
6146;DHT22;3104;50.348;7.620;2022-07-29T00:15:12;21.00;95.70
6146;DHT22;3104;50.348;7.620;2022-07-29T00:17:38;21.00;95.60
6146;DHT22;3104;50.348;7.620;2022-07-29T00:20:04;20.90;95.70
6146;DHT22;3104;50.348;7.620;2022-07-29T00:22:30;20.90;95.70
6146;DHT22;3104;50.348;7.620;2022-07-29T00:24:56;20.90;95.80
6146;DHT22;3104;50.348;7.620;2022-07-29T00:27:21;20.90;95.60
6146;DHT22;3104;50.348;7.620;2022-07-29T00:29:47;21.00;95.30
6146;DHT22;3104;50.348;7.620;2022-07-29T00:32:13;21.00;95.30
6146;DHT22;3104;50.348;7.620;2022-07-29T00:34:39;21.00;95.00
6146;DHT22;3104;50.348;7.620;2022-07-29T00:37:23;20.90;95.20
6146;DHT22;3104;50.348;7.620;2022-07-29T00:39:49;21.00;95.20
6146;DHT22;3104;50.348;7.620;2022-07-29T00:42:15;21.00;95.20
6146;DHT22;3104;50.348;7.620;2022-07-29T00:44:42;21.00;95.60
6146;DHT22;3104;50.348;7.620;2022-07-29T00:47:09;20.90;95.90
6146;DHT22;3104;50.348;7.620;2022-07-29T00:49:35;20.90;95.30
6146;DHT22;3104;50.348;7.620;2022-07-29T00:52:02;20.90;95.30
6146;DHT22;3104;50.348;7.620;2022-07-29T00:54:28;20.90;95.40
6146;DHT22;3104;50.348;7.620;2022-07-29T00:56:56;20.90;95.40
6146;DHT22;3104;50.348;7.620;2022-07-29T00:59:23;20.90;95.50
6146;DHT22;3104;50.348;7.620;2022-07-29T01:01:48;20.90;95.90
6146;DHT22;3104;50.348;7.620;2022-07-29T01:04:14;20.90;96.00
6146;DHT22;3104;50.348;7.620;2022-07-29T01:06:40;21.00;95.60
6146;DHT22;3104;50.348;7.620;2022-07-29T01:09:06;20.90;96.10
6146;DHT22;3104;50.348;7.620;2022-07-29T01:11:33;20.90;96.60
6146;DHT22;3104;50.348;7.620;2022-07-29T01:13:59;20.90;97.10
6146;DHT22;3104;50.348;7.620;2022-07-29T01:16:32;20.90;97.10
6146;DHT22;3104;50.348;7.620;2022-07-29T01:19:12;20.80;97.60
6146;DHT22;3104;50.348;7.620;2022-07-29T01:21:51;20.70;98.30
6146;DHT22;3104;50.348;7.620;2022-07-29T01:27:02;20.40;99.20
6146;DHT22;3104;50.348;7.620;2022-07-29T01:29:39;20.50;98.50
6146;DHT22;3104;50.348;7.620;2022-07-29T01:32:12;20.30;99.90
6146;DHT22;3104;50.348;7.620;2022-07-29T01:37:45;20.30;98.30
6146;DHT22;3104;50.348;7.620;2022-07-29T01:40:19;20.20;98.60
6146;DHT22;3104;50.348;7.620;2022-07-29T01:42:50;20.20;98.70
6146;DHT22;3104;50.348;7.620;2022-07-29T01:45:39;20.10;99.50
6146;DHT22;3104;50.348;7.620;2022-07-29T01:50:48;20.10;99.90
6146;DHT22;3104;50.348;7.620;2022-07-29T01:53:21;20.00;99.50
6146;DHT22;3104;50.348;7.620;2022-07-29T01:55:50;20.00;99.90
6146;DHT22;3104;50.348;7.620;2022-07-29T01:58:18;20.00;99.90
6146;DHT22;3104;50.348;7.620;2022-07-29T02:00:45;19.80;99.90
6146;DHT22;3104;50.348;7.620;2022-07-29T02:03:13;19.70;99.90
6146;DHT22;3104;50.348;7.620;2022-07-29T02:05:41;19.50;99.90
6146;DHT22;3104;50.348;7.620;2022-07-29T02:08:08;19.40;99.90
6146;DHT22;3104;50.348;7.620;2022-07-29T02:10:35;19.40;99.90
6146;DHT22;3104;50.348;7.620;2022-07-29T02:13:03;19.50;99.90
6146;DHT22;3104;50.348;7.620;2022-07-29T02:15:31;19.60;99.90
6146;DHT22;3104;50.348;7.620;2022-07-29T02:18:04;19.60;99.90
6146;DHT22;3104;50.348;7.620;2022-07-29T02:20:31;19.70;99.90
6146;DHT22;3104;50.348;7.620;2022-07-29T02:22:58;19.50;99.90
6146;DHT22;3104;50.348;7.620;2022-07-29T02:25:26;19.50;99.90
6146;DHT22;3104;50.348;7.620;2022-07-29T02:27:53;19.40;99.90
6146;DHT22;3104;50.348;7.620;2022-07-29T02:30:21;19.20;99.90
6146;DHT22;3104;50.348;7.620;2022-07-29T02:32:48;19.10;99.90
6146;DHT22;3104;50.348;7.620;2022-07-29T02:35:15;19.00;99.90
6146;DHT22;3104;50.348;7.620;2022-07-29T02:37:43;19.10;99.90
6146;DHT22;3104;50.348;7.620;2022-07-29T02:40:11;19.10;99.90
6146;DHT22;3104;50.348;7.620;2022-07-29T02:42:41;19.00;99.90
6146;DHT22;3104;50.348;7.620;2022-07-29T02:45:08;19.10;99.90
6146;DHT22;3104;50.348;7.620;2022-07-29T02:47:41;19.10;99.90
6146;DHT22;3104;50.348;7.620;2022-07-29T02:50:17;19.00;99.90
6146;DHT22;3104;50.348;7.620;2022-07-29T02:52:52;18.80;99.90
6146;DHT22;3104;50.348;7.620;2022-07-29T03:00:49;18.60;99.90
6146;DHT22;3104;50.348;7.620;2022-07-29T03:03:18;18.60;99.90
6146;DHT22;3104;50.348;7.620;2022-07-29T03:05:44;18.40;99.90
6146;DHT22;3104;50.348;7.620;2022-07-29T03:08:12;18.30;99.90
6146;DHT22;3104;50.348;7.620;2022-07-29T03:10:39;18.20;99.90
6146;DHT22;3104;50.348;7.620;2022-07-29T03:13:06;18.20;99.90
6146;DHT22;3104;50.348;7.620;2022-07-29T03:15:33;18.00;99.90
6146;DHT22;3104;50.348;7.620;2022-07-29T03:17:59;18.00;99.90
6146;DHT22;3104;50.348;7.620;2022-07-29T03:20:26;17.90;99.90
6146;DHT22;3104;50.348;7.620;2022-07-29T03:22:51;17.80;99.90
6146;DHT22;3104;50.348;7.620;2022-07-29T03:25:19;17.70;99.90
6146;DHT22;3104;50.348;7.620;2022-07-29T03:27:45;17.70;99.90
6146;DHT22;3104;50.348;7.620;2022-07-29T03:30:12;17.80;99.90
6146;DHT22;3104;50.348;7.620;2022-07-29T03:32:38;17.70;99.90
6146;DHT22;3104;50.348;7.620;2022-07-29T03:35:05;17.70;99.90
6146;DHT22;3104;50.348;7.620;2022-07-29T03:37:31;17.60;99.90
6146;DHT22;3104;50.348;7.620;2022-07-29T03:39:57;17.60;99.90
6146;DHT22;3104;50.348;7.620;2022-07-29T03:42:25;17.60;99.90
6146;DHT22;3104;50.348;7.620;2022-07-29T03:44:52;17.60;99.90
6146;DHT22;3104;50.348;7.620;2022-07-29T03:47:23;17.50;99.90
6146;DHT22;3104;50.348;7.620;2022-07-29T03:49:54;17.50;99.90
6146;DHT22;3104;50.348;7.620;2022-07-29T03:52:21;17.40;99.90
6146;DHT22;3104;50.348;7.620;2022-07-29T03:54:46;17.40;99.90
6146;DHT22;3104;50.348;7.620;2022-07-29T03:57:13;17.30;99.90
6146;DHT22;3104;50.348;7.620;2022-07-29T03:59:41;17.40;99.90
6146;DHT22;3104;50.348;7.620;2022-07-29T04:02:10;17.30;99.90
6146;DHT22;3104;50.348;7.620;2022-07-29T04:04:36;17.30;99.90
6146;DHT22;3104;50.348;7.620;2022-07-29T04:07:03;17.20;99.90
6146;DHT22;3104;50.348;7.620;2022-07-29T04:09:29;17.20;99.90
6146;DHT22;3104;50.348;7.620;2022-07-29T04:11:54;17.10;99.90
6146;DHT22;3104;50.348;7.620;2022-07-29T04:14:20;16.90;99.90
6146;DHT22;3104;50.348;7.620;2022-07-29T04:16:46;17.10;99.90
6146;DHT22;3104;50.348;7.620;2022-07-29T04:19:12;17.10;99.90
6146;DHT22;3104;50.348;7.620;2022-07-29T04:21:39;17.10;99.90
6146;DHT22;3104;50.348;7.620;2022-07-29T04:24:05;17.20;99.90
6146;DHT22;3104;50.348;7.620;2022-07-29T04:26:31;17.20;99.90
6146;DHT22;3104;50.348;7.620;2022-07-29T04:28:56;17.30;99.90
6146;DHT22;3104;50.348;7.620;2022-07-29T04:31:22;17.40;99.90
6146;DHT22;3104;50.348;7.620;2022-07-29T04:33:47;17.50;99.90
6146;DHT22;3104;50.348;7.620;2022-07-29T04:36:13;17.60;99.90
6146;DHT22;3104;50.348;7.620;2022-07-29T04:38:39;17.80;99.90
6146;DHT22;3104;50.348;7.620;2022-07-29T04:41:04;17.90;99.90
6146;DHT22;3104;50.348;7.620;2022-07-29T04:43:35;18.30;99.90
6146;DHT22;3104;50.348;7.620;2022-07-29T04:46:01;18.50;99.90
6146;DHT22;3104;50.348;7.620;2022-07-29T04:48:27;18.30;99.90
6146;DHT22;3104;50.348;7.620;2022-07-29T04:50:53;18.20;99.90
6146;DHT22;3104;50.348;7.620;2022-07-29T04:53:19;18.20;99.90
6146;DHT22;3104;50.348;7.620;2022-07-29T04:55:44;18.30;99.90
6146;DHT22;3104;50.348;7.620;2022-07-29T04:58:11;18.30;99.90
6146;DHT22;3104;50.348;7.620;2022-07-29T05:00:36;18.30;99.90
6146;DHT22;3104;50.348;7.620;2022-07-29T05:03:03;18.40;99.90
6146;DHT22;3104;50.348;7.620;2022-07-29T05:05:28;18.40;99.90
6146;DHT22;3104;50.348;7.620;2022-07-29T05:07:54;18.50;99.90
6146;DHT22;3104;50.348;7.620;2022-07-29T05:10:20;18.50;99.90
6146;DHT22;3104;50.348;7.620;2022-07-29T05:12:46;18.70;99.90
6146;DHT22;3104;50.348;7.620;2022-07-29T05:15:12;18.80;99.90
6146;DHT22;3104;50.348;7.620;2022-07-29T05:17:37;19.00;99.90
6146;DHT22;3104;50.348;7.620;2022-07-29T05:20:04;19.00;99.90
6146;DHT22;3104;50.348;7.620;2022-07-29T05:22:30;19.00;99.90
6146;DHT22;3104;50.348;7.620;2022-07-29T05:24:55;19.10;99.90
6146;DHT22;3104;50.348;7.620;2022-07-29T05:27:21;19.20;99.90
6146;DHT22;3104;50.348;7.620;2022-07-29T05:29:46;19.50;99.90
6146;DHT22;3104;50.348;7.620;2022-07-29T05:32:13;19.60;99.90
6146;DHT22;3104;50.348;7.620;2022-07-29T05:34:39;19.60;99.90
6146;DHT22;3104;50.348;7.620;2022-07-29T05:37:04;19.70;99.90
6146;DHT22;3104;50.348;7.620;2022-07-29T05:39:30;19.70;99.90
6146;DHT22;3104;50.348;7.620;2022-07-29T05:41:56;19.70;99.90
6146;DHT22;3104;50.348;7.620;2022-07-29T05:44:21;19.60;99.90
6146;DHT22;3104;50.348;7.620;2022-07-29T05:46:47;19.50;99.90
6146;DHT22;3104;50.348;7.620;2022-07-29T05:49:12;19.60;99.90
6146;DHT22;3104;50.348;7.620;2022-07-29T05:51:38;19.60;99.90
6146;DHT22;3104;50.348;7.620;2022-07-29T05:54:04;19.60;99.90
6146;DHT22;3104;50.348;7.620;2022-07-29T05:56:29;19.50;99.90
6146;DHT22;3104;50.348;7.620;2022-07-29T05:58:55;19.50;99.90
6146;DHT22;3104;50.348;7.620;2022-07-29T06:01:20;19.50;99.90
6146;DHT22;3104;50.348;7.620;2022-07-29T06:03:46;19.60;99.90
6146;DHT22;3104;50.348;7.620;2022-07-29T06:06:12;19.60;99.90
6146;DHT22;3104;50.348;7.620;2022-07-29T06:08:38;19.70;99.90
6146;DHT22;3104;50.348;7.620;2022-07-29T06:11:04;19.80;99.90
6146;DHT22;3104;50.348;7.620;2022-07-29T06:13:30;19.90;99.90
6146;DHT22;3104;50.348;7.620;2022-07-29T06:15:56;20.00;99.90
6146;DHT22;3104;50.348;7.620;2022-07-29T06:18:22;20.10;99.90
6146;DHT22;3104;50.348;7.620;2022-07-29T06:20:50;20.10;99.90
6146;DHT22;3104;50.348;7.620;2022-07-29T06:23:16;20.20;99.90
6146;DHT22;3104;50.348;7.620;2022-07-29T06:25:42;20.20;99.90
6146;DHT22;3104;50.348;7.620;2022-07-29T06:28:07;20.20;99.90
6146;DHT22;3104;50.348;7.620;2022-07-29T06:30:33;20.30;99.90
6146;DHT22;3104;50.348;7.620;2022-07-29T06:32:59;20.20;99.90
6146;DHT22;3104;50.348;7.620;2022-07-29T06:35:25;20.10;99.90
6146;DHT22;3104;50.348;7.620;2022-07-29T06:37:51;20.20;99.90
6146;DHT22;3104;50.348;7.620;2022-07-29T06:40:17;20.10;99.90
6146;DHT22;3104;50.348;7.620;2022-07-29T06:43:01;20.10;99.90
6146;DHT22;3104;50.348;7.620;2022-07-29T06:45:27;20.00;99.90
6146;DHT22;3104;50.348;7.620;2022-07-29T06:47:52;20.00;99.90
6146;DHT22;3104;50.348;7.620;2022-07-29T06:50:18;20.10;99.90
6146;DHT22;3104;50.348;7.620;2022-07-29T06:52:44;20.10;99.90
6146;DHT22;3104;50.348;7.620;2022-07-29T06:55:09;20.20;99.90
6146;DHT22;3104;50.348;7.620;2022-07-29T06:57:35;20.20;99.90
6146;DHT22;3104;50.348;7.620;2022-07-29T07:00:01;20.10;99.90
6146;DHT22;3104;50.348;7.620;2022-07-29T07:02:29;20.10;99.90
6146;DHT22;3104;50.348;7.620;2022-07-29T07:04:54;20.20;99.90
6146;DHT22;3104;50.348;7.620;2022-07-29T07:07:20;19.90;99.90
6146;DHT22;3104;50.348;7.620;2022-07-29T07:09:45;20.00;99.90
6146;DHT22;3104;50.348;7.620;2022-07-29T07:12:11;19.90;99.90
6146;DHT22;3104;50.348;7.620;2022-07-29T07:14:37;19.90;99.90
6146;DHT22;3104;50.348;7.620;2022-07-29T07:17:02;20.00;99.90
6146;DHT22;3104;50.348;7.620;2022-07-29T07:19:29;20.00;99.90
6146;DHT22;3104;50.348;7.620;2022-07-29T07:21:54;20.10;99.90
6146;DHT22;3104;50.348;7.620;2022-07-29T07:24:20;20.20;99.90
6146;DHT22;3104;50.348;7.620;2022-07-29T07:26:46;20.20;99.90
6146;DHT22;3104;50.348;7.620;2022-07-29T07:29:12;20.20;99.90
6146;DHT22;3104;50.348;7.620;2022-07-29T07:31:38;20.20;99.90
6146;DHT22;3104;50.348;7.620;2022-07-29T07:34:04;20.20;99.90
6146;DHT22;3104;50.348;7.620;2022-07-29T07:36:30;20.50;99.90
6146;DHT22;3104;50.348;7.620;2022-07-29T07:38:55;20.60;99.90
6146;DHT22;3104;50.348;7.620;2022-07-29T07:41:21;20.80;99.90
6146;DHT22;3104;50.348;7.620;2022-07-29T07:43:48;21.10;99.90
6146;DHT22;3104;50.348;7.620;2022-07-29T07:46:13;21.10;99.90
6146;DHT22;3104;50.348;7.620;2022-07-29T07:48:39;21.00;99.90
6146;DHT22;3104;50.348;7.620;2022-07-29T07:51:06;21.10;99.90
6146;DHT22;3104;50.348;7.620;2022-07-29T07:53:32;21.30;99.90
6146;DHT22;3104;50.348;7.620;2022-07-29T07:55:58;21.40;99.90
6146;DHT22;3104;50.348;7.620;2022-07-29T07:58:24;21.50;99.90
6146;DHT22;3104;50.348;7.620;2022-07-29T08:00:50;21.80;99.90
6146;DHT22;3104;50.348;7.620;2022-07-29T08:03:15;22.10;99.90
6146;DHT22;3104;50.348;7.620;2022-07-29T08:05:41;22.30;99.90
6146;DHT22;3104;50.348;7.620;2022-07-29T08:08:07;22.50;99.90
6146;DHT22;3104;50.348;7.620;2022-07-29T08:10:33;22.70;99.90
6146;DHT22;3104;50.348;7.620;2022-07-29T08:13:17;23.00;99.90
6146;DHT22;3104;50.348;7.620;2022-07-29T08:15:43;23.20;99.90
6146;DHT22;3104;50.348;7.620;2022-07-29T08:18:11;23.00;99.90
6146;DHT22;3104;50.348;7.620;2022-07-29T08:20:37;22.80;99.90
6146;DHT22;3104;50.348;7.620;2022-07-29T08:23:04;23.10;99.90
6146;DHT22;3104;50.348;7.620;2022-07-29T08:25:32;23.50;99.90
6146;DHT22;3104;50.348;7.620;2022-07-29T08:27:58;23.90;99.90
6146;DHT22;3104;50.348;7.620;2022-07-29T08:30:24;23.50;99.90
6146;DHT22;3104;50.348;7.620;2022-07-29T08:32:50;24.00;99.90
6146;DHT22;3104;50.348;7.620;2022-07-29T08:35:20;24.10;99.90
6146;DHT22;3104;50.348;7.620;2022-07-29T08:37:45;24.20;99.90
6146;DHT22;3104;50.348;7.620;2022-07-29T08:40:11;24.90;98.60
6146;DHT22;3104;50.348;7.620;2022-07-29T08:42:37;24.90;98.20
6146;DHT22;3104;50.348;7.620;2022-07-29T08:45:04;25.50;97.60
6146;DHT22;3104;50.348;7.620;2022-07-29T08:47:30;25.80;96.70
6146;DHT22;3104;50.348;7.620;2022-07-29T08:49:55;25.50;96.90
6146;DHT22;3104;50.348;7.620;2022-07-29T08:52:24;25.40;97.30
6146;DHT22;3104;50.348;7.620;2022-07-29T08:54:52;25.70;97.00
6146;DHT22;3104;50.348;7.620;2022-07-29T08:57:19;25.90;96.10
6146;DHT22;3104;50.348;7.620;2022-07-29T08:59:46;26.40;95.60
6146;DHT22;3104;50.348;7.620;2022-07-29T09:02:22;26.50;95.80
6146;DHT22;3104;50.348;7.620;2022-07-29T09:04:48;26.20;95.60
6146;DHT22;3104;50.348;7.620;2022-07-29T09:07:15;26.30;95.40
6146;DHT22;3104;50.348;7.620;2022-07-29T09:09:42;26.40;95.60
6146;DHT22;3104;50.348;7.620;2022-07-29T09:12:09;26.50;94.90
6146;DHT22;3104;50.348;7.620;2022-07-29T09:14:37;27.00;94.90
6146;DHT22;3104;50.348;7.620;2022-07-29T09:17:02;27.00;94.10
6146;DHT22;3104;50.348;7.620;2022-07-29T09:19:31;27.10;94.70
6146;DHT22;3104;50.348;7.620;2022-07-29T09:21:59;27.10;94.40
6146;DHT22;3104;50.348;7.620;2022-07-29T09:24:46;27.20;94.30
6146;DHT22;3104;50.348;7.620;2022-07-29T09:27:24;27.40;94.00
6146;DHT22;3104;50.348;7.620;2022-07-29T09:30:06;27.40;94.20
6146;DHT22;3104;50.348;7.620;2022-07-29T09:32:33;27.60;93.90
6146;DHT22;3104;50.348;7.620;2022-07-29T09:35:19;28.30;93.70
6146;DHT22;3104;50.348;7.620;2022-07-29T09:37:45;28.50;92.90
6146;DHT22;3104;50.348;7.620;2022-07-29T09:40:18;27.80;93.10
6146;DHT22;3104;50.348;7.620;2022-07-29T09:42:45;27.10;93.90
6146;DHT22;3104;50.348;7.620;2022-07-29T09:45:12;27.10;94.60
6146;DHT22;3104;50.348;7.620;2022-07-29T09:47:46;27.10;94.10
6146;DHT22;3104;50.348;7.620;2022-07-29T09:50:13;26.20;94.90
6146;DHT22;3104;50.348;7.620;2022-07-29T09:52:50;26.30;95.80
6146;DHT22;3104;50.348;7.620;2022-07-29T09:55:17;26.60;95.50
6146;DHT22;3104;50.348;7.620;2022-07-29T09:57:44;26.80;95.10
6146;DHT22;3104;50.348;7.620;2022-07-29T10:00:18;27.60;94.10
6146;DHT22;3104;50.348;7.620;2022-07-29T10:02:46;27.80;93.90
6146;DHT22;3104;50.348;7.620;2022-07-29T10:05:23;27.90;93.50
6146;DHT22;3104;50.348;7.620;2022-07-29T10:07:51;27.60;93.40
6146;DHT22;3104;50.348;7.620;2022-07-29T10:12:53;27.60;93.70
6146;DHT22;3104;50.348;7.620;2022-07-29T10:15:25;27.60;93.30
6146;DHT22;3104;50.348;7.620;2022-07-29T10:17:52;27.30;93.80
6146;DHT22;3104;50.348;7.620;2022-07-29T10:20:18;27.50;93.70
6146;DHT22;3104;50.348;7.620;2022-07-29T10:22:44;27.30;94.40
6146;DHT22;3104;50.348;7.620;2022-07-29T10:25:12;27.50;94.00
6146;DHT22;3104;50.348;7.620;2022-07-29T10:27:39;27.10;94.00
6146;DHT22;3104;50.348;7.620;2022-07-29T10:30:05;27.50;94.20
6146;DHT22;3104;50.348;7.620;2022-07-29T10:32:36;28.30;93.50
6146;DHT22;3104;50.348;7.620;2022-07-29T10:38:26;28.50;92.20
6146;DHT22;3104;50.348;7.620;2022-07-29T10:40:57;28.10;92.70
6146;DHT22;3104;50.348;7.620;2022-07-29T10:43:48;27.60;92.90
6146;DHT22;3104;50.348;7.620;2022-07-29T10:46:14;28.60;92.60
6146;DHT22;3104;50.348;7.620;2022-07-29T10:49:09;28.60;92.00
6146;DHT22;3104;50.348;7.620;2022-07-29T10:52:07;28.40;91.80
6146;DHT22;3104;50.348;7.620;2022-07-29T10:54:41;29.10;91.60
6146;DHT22;3104;50.348;7.620;2022-07-29T10:57:18;29.70;91.30
6146;DHT22;3104;50.348;7.620;2022-07-29T10:59:48;29.40;90.80
6146;DHT22;3104;50.348;7.620;2022-07-29T11:05:00;29.20;90.90
6146;DHT22;3104;50.348;7.620;2022-07-29T11:07:26;29.10;91.20
6146;DHT22;3104;50.348;7.620;2022-07-29T11:15:05;30.10;90.10
6146;DHT22;3104;50.348;7.620;2022-07-29T11:23:31;30.00;88.60
6146;DHT22;3104;50.348;7.620;2022-07-29T11:29:16;30.90;88.30
6146;DHT22;3104;50.348;7.620;2022-07-29T11:31:47;30.40;87.30
6146;DHT22;3104;50.348;7.620;2022-07-29T11:34:23;29.40;89.60
6146;DHT22;3104;50.348;7.620;2022-07-29T11:47:28;28.60;90.30
6146;DHT22;3104;50.348;7.620;2022-07-29T11:49:59;28.10;90.80
6146;DHT22;3104;50.348;7.620;2022-07-29T11:52:36;28.50;91.00
6146;DHT22;3104;50.348;7.620;2022-07-29T11:55:09;29.00;90.00
6146;DHT22;3104;50.348;7.620;2022-07-29T11:57:35;29.10;90.20
6146;DHT22;3104;50.348;7.620;2022-07-29T12:00:04;29.90;90.00
6146;DHT22;3104;50.348;7.620;2022-07-29T12:02:41;30.40;88.60
6146;DHT22;3104;50.348;7.620;2022-07-29T12:05:08;29.90;87.90
6146;DHT22;3104;50.348;7.620;2022-07-29T12:07:35;29.50;88.10
6146;DHT22;3104;50.348;7.620;2022-07-29T12:10:03;29.20;88.40
6146;DHT22;3104;50.348;7.620;2022-07-29T12:12:29;28.90;88.90
6146;DHT22;3104;50.348;7.620;2022-07-29T12:14:54;28.90;89.10
6146;DHT22;3104;50.348;7.620;2022-07-29T12:17:31;29.50;88.40
6146;DHT22;3104;50.348;7.620;2022-07-29T12:19:59;29.50;89.10
6146;DHT22;3104;50.348;7.620;2022-07-29T12:22:30;29.30;89.50
6146;DHT22;3104;50.348;7.620;2022-07-29T12:25:02;28.30;89.90
6146;DHT22;3104;50.348;7.620;2022-07-29T12:27:28;28.10;90.10
6146;DHT22;3104;50.348;7.620;2022-07-29T12:29:58;27.80;90.70
6146;DHT22;3104;50.348;7.620;2022-07-29T12:32:46;27.70;91.20
6146;DHT22;3104;50.348;7.620;2022-07-29T12:35:16;27.80;91.30
6146;DHT22;3104;50.348;7.620;2022-07-29T12:37:45;27.90;91.10
6146;DHT22;3104;50.348;7.620;2022-07-29T12:40:14;27.70;90.70
6146;DHT22;3104;50.348;7.620;2022-07-29T12:43:04;28.00;90.60
6146;DHT22;3104;50.348;7.620;2022-07-29T12:45:30;29.10;90.50
6146;DHT22;3104;50.348;7.620;2022-07-29T12:47:56;28.90;89.20
6146;DHT22;3104;50.348;7.620;2022-07-29T12:50:22;29.40;89.00
6146;DHT22;3104;50.348;7.620;2022-07-29T12:52:48;29.50;88.40
6146;DHT22;3104;50.348;7.620;2022-07-29T12:55:14;29.50;89.10
6146;DHT22;3104;50.348;7.620;2022-07-29T12:57:51;29.20;89.60
6146;DHT22;3104;50.348;7.620;2022-07-29T13:00:23;29.40;89.50
6146;DHT22;3104;50.348;7.620;2022-07-29T13:02:56;29.70;88.10
6146;DHT22;3104;50.348;7.620;2022-07-29T13:05:22;29.90;86.90
6146;DHT22;3104;50.348;7.620;2022-07-29T13:07:47;29.60;88.60
6146;DHT22;3104;50.348;7.620;2022-07-29T13:10:16;30.00;87.70
6146;DHT22;3104;50.348;7.620;2022-07-29T13:13:14;30.30;87.10
6146;DHT22;3104;50.348;7.620;2022-07-29T13:15:42;29.90;87.80
6146;DHT22;3104;50.348;7.620;2022-07-29T13:20:53;29.80;87.00
6146;DHT22;3104;50.348;7.620;2022-07-29T13:23:19;30.10;89.30
6146;DHT22;3104;50.348;7.620;2022-07-29T13:25:45;30.60;86.60
6146;DHT22;3104;50.348;7.620;2022-07-29T13:28:10;30.50;86.70
6146;DHT22;3104;50.348;7.620;2022-07-29T13:30:37;30.90;85.10
6146;DHT22;3104;50.348;7.620;2022-07-29T13:33:03;30.60;84.40
6146;DHT22;3104;50.348;7.620;2022-07-29T13:35:28;31.00;85.10
6146;DHT22;3104;50.348;7.620;2022-07-29T13:37:55;30.90;85.20
6146;DHT22;3104;50.348;7.620;2022-07-29T13:40:21;30.40;86.50
6146;DHT22;3104;50.348;7.620;2022-07-29T13:42:46;30.20;86.90
6146;DHT22;3104;50.348;7.620;2022-07-29T13:45:12;29.80;86.70
6146;DHT22;3104;50.348;7.620;2022-07-29T13:47:38;29.90;86.10
6146;DHT22;3104;50.348;7.620;2022-07-29T13:50:05;29.60;86.00
6146;DHT22;3104;50.348;7.620;2022-07-29T13:52:31;30.00;86.00
6146;DHT22;3104;50.348;7.620;2022-07-29T13:54:56;30.20;84.60
6146;DHT22;3104;50.348;7.620;2022-07-29T13:57:22;30.90;83.70
6146;DHT22;3104;50.348;7.620;2022-07-29T13:59:47;31.50;85.00
6146;DHT22;3104;50.348;7.620;2022-07-29T14:02:13;31.40;84.00
6146;DHT22;3104;50.348;7.620;2022-07-29T14:04:39;31.00;84.10
6146;DHT22;3104;50.348;7.620;2022-07-29T14:07:05;31.00;85.10
6146;DHT22;3104;50.348;7.620;2022-07-29T14:09:31;31.00;84.10
6146;DHT22;3104;50.348;7.620;2022-07-29T14:11:56;31.20;83.70
6146;DHT22;3104;50.348;7.620;2022-07-29T14:14:22;31.30;83.30
6146;DHT22;3104;50.348;7.620;2022-07-29T14:16:48;31.60;84.20
6146;DHT22;3104;50.348;7.620;2022-07-29T14:19:13;31.00;82.30
6146;DHT22;3104;50.348;7.620;2022-07-29T14:21:39;30.90;82.50
6146;DHT22;3104;50.348;7.620;2022-07-29T14:24:05;30.10;84.10
6146;DHT22;3104;50.348;7.620;2022-07-29T14:26:31;29.50;83.80
6146;DHT22;3104;50.348;7.620;2022-07-29T14:28:57;29.30;85.40
6146;DHT22;3104;50.348;7.620;2022-07-29T14:31:22;29.70;85.80
6146;DHT22;3104;50.348;7.620;2022-07-29T14:33:48;30.10;83.80
6146;DHT22;3104;50.348;7.620;2022-07-29T14:36:13;29.50;84.80
6146;DHT22;3104;50.348;7.620;2022-07-29T14:38:39;29.70;85.30
6146;DHT22;3104;50.348;7.620;2022-07-29T14:41:06;30.00;84.50
6146;DHT22;3104;50.348;7.620;2022-07-29T14:43:33;29.90;85.00
6146;DHT22;3104;50.348;7.620;2022-07-29T14:45:59;29.70;86.60
6146;DHT22;3104;50.348;7.620;2022-07-29T14:48:25;29.90;85.80
6146;DHT22;3104;50.348;7.620;2022-07-29T14:50:51;30.30;85.50
6146;DHT22;3104;50.348;7.620;2022-07-29T14:53:16;30.50;84.80
6146;DHT22;3104;50.348;7.620;2022-07-29T14:55:42;30.60;84.80
6146;DHT22;3104;50.348;7.620;2022-07-29T14:58:08;30.60;85.10
6146;DHT22;3104;50.348;7.620;2022-07-29T15:00:35;30.70;85.10
6146;DHT22;3104;50.348;7.620;2022-07-29T15:03:02;30.30;84.40
6146;DHT22;3104;50.348;7.620;2022-07-29T15:05:31;30.20;84.90
6146;DHT22;3104;50.348;7.620;2022-07-29T15:07:58;29.90;85.50
6146;DHT22;3104;50.348;7.620;2022-07-29T15:10:25;30.10;85.90
6146;DHT22;3104;50.348;7.620;2022-07-29T15:12:54;30.00;85.90
6146;DHT22;3104;50.348;7.620;2022-07-29T15:15:20;29.60;86.30
6146;DHT22;3104;50.348;7.620;2022-07-29T15:17:46;29.40;86.40
6146;DHT22;3104;50.348;7.620;2022-07-29T15:20:12;29.40;86.40
6146;DHT22;3104;50.348;7.620;2022-07-29T15:22:38;29.00;87.30
6146;DHT22;3104;50.348;7.620;2022-07-29T15:25:05;28.30;88.60
6146;DHT22;3104;50.348;7.620;2022-07-29T15:27:32;28.10;88.90
6146;DHT22;3104;50.348;7.620;2022-07-29T15:29:57;27.80;89.30
6146;DHT22;3104;50.348;7.620;2022-07-29T15:32:23;28.30;89.50
6146;DHT22;3104;50.348;7.620;2022-07-29T15:34:49;28.60;89.00
6146;DHT22;3104;50.348;7.620;2022-07-29T15:37:14;29.20;89.00
6146;DHT22;3104;50.348;7.620;2022-07-29T15:39:40;29.40;87.10
6146;DHT22;3104;50.348;7.620;2022-07-29T15:42:06;29.40;87.20
6146;DHT22;3104;50.348;7.620;2022-07-29T15:44:31;29.50;86.90
6146;DHT22;3104;50.348;7.620;2022-07-29T15:46:58;29.40;87.40
6146;DHT22;3104;50.348;7.620;2022-07-29T15:49:39;29.20;87.00
6146;DHT22;3104;50.348;7.620;2022-07-29T15:52:08;29.20;87.00
6146;DHT22;3104;50.348;7.620;2022-07-29T15:54:35;29.40;87.20
6146;DHT22;3104;50.348;7.620;2022-07-29T15:57:02;29.40;86.30
6146;DHT22;3104;50.348;7.620;2022-07-29T15:59:29;29.20;86.70
6146;DHT22;3104;50.348;7.620;2022-07-29T16:01:55;29.10;85.90
6146;DHT22;3104;50.348;7.620;2022-07-29T16:04:21;29.10;86.40
6146;DHT22;3104;50.348;7.620;2022-07-29T16:06:47;29.00;86.00
6146;DHT22;3104;50.348;7.620;2022-07-29T16:09:13;29.00;87.30
6146;DHT22;3104;50.348;7.620;2022-07-29T16:11:40;29.10;86.30
6146;DHT22;3104;50.348;7.620;2022-07-29T16:14:06;29.10;86.50
6146;DHT22;3104;50.348;7.620;2022-07-29T16:16:32;29.00;86.80
6146;DHT22;3104;50.348;7.620;2022-07-29T16:18:58;29.50;85.80
6146;DHT22;3104;50.348;7.620;2022-07-29T16:21:24;28.90;86.10
6146;DHT22;3104;50.348;7.620;2022-07-29T16:23:50;28.90;86.00
6146;DHT22;3104;50.348;7.620;2022-07-29T16:26:16;28.80;86.10
6146;DHT22;3104;50.348;7.620;2022-07-29T16:28:41;29.10;87.40
6146;DHT22;3104;50.348;7.620;2022-07-29T16:31:07;28.60;86.10
6146;DHT22;3104;50.348;7.620;2022-07-29T16:33:33;28.50;87.10
6146;DHT22;3104;50.348;7.620;2022-07-29T16:35:59;28.40;86.90
6146;DHT22;3104;50.348;7.620;2022-07-29T16:38:25;28.30;86.50
6146;DHT22;3104;50.348;7.620;2022-07-29T16:40:51;28.60;86.60
6146;DHT22;3104;50.348;7.620;2022-07-29T16:43:17;28.70;85.70
6146;DHT22;3104;50.348;7.620;2022-07-29T16:45:43;28.60;85.90
6146;DHT22;3104;50.348;7.620;2022-07-29T16:48:09;28.60;86.30
6146;DHT22;3104;50.348;7.620;2022-07-29T16:50:34;28.40;86.20
6146;DHT22;3104;50.348;7.620;2022-07-29T16:53:00;28.20;86.80
6146;DHT22;3104;50.348;7.620;2022-07-29T16:55:26;28.60;87.10